createdAt,value
2022-09-30T00:01:33.938Z,7.76
2022-09-30T00:04:01.163Z,7.76
2022-09-30T00:06:29.672Z,7.77
2022-09-30T00:08:57.801Z,7.74
2022-09-30T00:11:27.249Z,7.66
2022-09-30T00:13:53.746Z,7.74
2022-09-30T00:16:22.607Z,7.69
2022-09-30T00:18:50.131Z,7.71
2022-09-30T00:21:17.657Z,7.67
2022-09-30T00:23:45.149Z,7.65
2022-09-30T00:26:15.291Z,7.63
2022-09-30T00:28:43.886Z,7.52
2022-09-30T00:31:16.076Z,7.42
2022-09-30T00:33:43.363Z,7.43
2022-09-30T00:36:11.248Z,7.44
2022-09-30T00:38:37.719Z,7.49
2022-09-30T00:41:04.473Z,7.53
2022-09-30T00:43:53.279Z,7.53
2022-09-30T00:46:44.878Z,7.52
2022-09-30T00:49:19.007Z,7.47
2022-09-30T00:51:50.484Z,7.46
2022-09-30T00:54:21.840Z,7.44
2022-09-30T00:56:56.700Z,7.38
2022-09-30T00:59:27.215Z,7.36
2022-09-30T01:01:54.302Z,7.35
2022-09-30T01:04:26.073Z,7.23
2022-09-30T01:06:52.903Z,7.26
2022-09-30T01:09:20.166Z,7.25
2022-09-30T01:11:48.017Z,7.24
2022-09-30T01:14:21.447Z,7.21
2022-09-30T01:16:59.220Z,7.19
2022-09-30T01:19:28.659Z,7.16
2022-09-30T01:22:13.528Z,7.16
2022-09-30T01:25:01.407Z,7.15
2022-09-30T01:27:40.651Z,7.07
2022-09-30T01:30:22.532Z,7.01
2022-09-30T01:33:00.947Z,7.02
2022-09-30T01:35:57.174Z,6.99
2022-09-30T01:38:28.590Z,6.90
2022-09-30T01:41:05.735Z,6.86
2022-09-30T01:44:17.658Z,6.86
2022-09-30T01:46:51.751Z,6.76
2022-09-30T01:49:47.410Z,6.65
2022-09-30T01:52:19.792Z,6.75
2022-09-30T01:55:06.858Z,6.82
2022-09-30T01:57:44.976Z,6.83
2022-09-30T02:00:13.141Z,6.74
2022-09-30T02:02:58.232Z,6.83
2022-09-30T02:05:30.790Z,6.79
2022-09-30T02:08:26.431Z,6.75
2022-09-30T02:10:59.074Z,6.69
2022-09-30T02:13:39.975Z,6.72
2022-09-30T02:16:13.443Z,6.58
2022-09-30T02:18:54.125Z,6.55
2022-09-30T02:21:26.187Z,6.61
2022-09-30T02:23:59.471Z,6.60
2022-09-30T02:26:30.142Z,6.57
2022-09-30T02:29:06.388Z,6.58
2022-09-30T02:31:37.828Z,6.62
2022-09-30T02:34:08.657Z,6.62
2022-09-30T02:36:40.770Z,6.57
2022-09-30T02:39:16.250Z,6.55
2022-09-30T02:41:52.013Z,6.51
2022-09-30T02:44:19.646Z,6.49
2022-09-30T02:47:16.217Z,6.47
2022-09-30T02:49:56.872Z,6.45
2022-09-30T02:52:40.405Z,6.41
2022-09-30T02:55:14.540Z,6.42
2022-09-30T02:57:46.734Z,6.47
2022-09-30T03:00:13.864Z,6.43
2022-09-30T03:02:41.447Z,6.40
2022-09-30T03:05:09.611Z,6.37
2022-09-30T03:07:36.687Z,6.36
2022-09-30T03:10:12.816Z,6.25
2022-09-30T03:13:05.066Z,6.21
2022-09-30T03:15:59.360Z,6.29
2022-09-30T03:18:48.001Z,6.27
2022-09-30T03:21:36.523Z,6.20
2022-09-30T03:24:27.478Z,6.25
2022-09-30T03:27:18.861Z,6.23
2022-09-30T03:29:57.961Z,6.20
2022-09-30T03:32:33.365Z,6.22
2022-09-30T03:35:03.926Z,6.18
2022-09-30T03:37:45.412Z,5.97
2022-09-30T03:40:27.630Z,6.02
2022-09-30T03:43:22.999Z,6.08
2022-09-30T03:46:02.165Z,6.12
2022-09-30T03:48:31.905Z,6.08
2022-09-30T03:51:00.068Z,6.06
2022-09-30T03:53:28.500Z,6.04
2022-09-30T03:55:55.104Z,6.08
2022-09-30T03:58:23.509Z,6.03
2022-09-30T04:00:52.987Z,6.05
2022-09-30T04:03:21.815Z,6.03
2022-09-30T04:05:49.031Z,6.03
2022-09-30T04:08:16.179Z,5.99
2022-09-30T04:10:46.275Z,5.99
2022-09-30T04:13:12.944Z,5.97
2022-09-30T04:15:40.544Z,5.96
2022-09-30T04:18:07.496Z,5.97
2022-09-30T04:20:33.951Z,5.97
2022-09-30T04:23:01.509Z,5.97
2022-09-30T04:25:28.696Z,5.95
2022-09-30T04:27:55.822Z,5.96
2022-09-30T04:30:25.566Z,5.95
2022-09-30T04:32:53.811Z,5.94
2022-09-30T04:35:20.430Z,5.92
2022-09-30T04:37:47.999Z,5.93
2022-09-30T04:40:16.316Z,5.85
2022-09-30T04:42:43.046Z,5.89
2022-09-30T04:45:11.480Z,5.91
2022-09-30T04:47:37.898Z,5.96
2022-09-30T04:50:05.604Z,5.93
2022-09-30T04:52:32.032Z,5.89
2022-09-30T04:54:58.730Z,5.87
2022-09-30T04:57:25.439Z,5.84
2022-09-30T04:59:51.933Z,5.78
2022-09-30T05:02:18.421Z,5.74
2022-09-30T05:04:45.015Z,5.58
2022-09-30T05:07:11.663Z,5.64
2022-09-30T05:09:38.191Z,5.63
2022-09-30T05:12:04.740Z,5.58
2022-09-30T05:14:31.247Z,5.55
2022-09-30T05:16:57.702Z,5.58
2022-09-30T05:19:24.395Z,5.62
2022-09-30T05:21:52.044Z,5.67
2022-09-30T05:24:18.705Z,5.65
2022-09-30T05:26:45.171Z,5.61
2022-09-30T05:29:11.678Z,5.62
2022-09-30T05:31:38.223Z,5.64
2022-09-30T05:34:04.792Z,5.68
2022-09-30T05:36:31.204Z,5.70
2022-09-30T05:38:57.627Z,5.74
2022-09-30T05:41:24.452Z,5.67
2022-09-30T05:43:51.188Z,5.63
2022-09-30T05:46:19.372Z,5.58
2022-09-30T05:48:46.842Z,5.58
2022-09-30T05:51:13.789Z,5.53
2022-09-30T05:53:41.197Z,5.50
2022-09-30T05:56:09.243Z,5.51
2022-09-30T05:58:37.691Z,5.52
2022-09-30T06:01:13.211Z,5.56
2022-09-30T06:03:41.183Z,5.48
2022-09-30T06:06:07.837Z,5.55
2022-09-30T06:08:34.689Z,5.56
2022-09-30T06:11:01.206Z,5.61
2022-09-30T06:13:28.461Z,5.74
2022-09-30T06:15:59.386Z,5.74
2022-09-30T06:18:27.443Z,5.75
2022-09-30T06:21:02.011Z,5.82
2022-09-30T06:23:32.684Z,5.84
2022-09-30T06:25:59.122Z,5.94
2022-09-30T06:28:25.884Z,5.97
2022-09-30T06:30:52.283Z,6.10
2022-09-30T06:33:18.854Z,6.16
2022-09-30T06:35:47.365Z,6.13
2022-09-30T06:38:17.308Z,6.23
2022-09-30T06:40:44.810Z,6.32
2022-09-30T06:43:11.575Z,6.31
2022-09-30T06:45:38.415Z,6.43
2022-09-30T06:48:08.721Z,6.49
2022-09-30T06:50:36.032Z,6.56
2022-09-30T06:53:08.320Z,6.65
2022-09-30T06:55:39.259Z,6.74
2022-09-30T06:58:14.556Z,6.81
2022-09-30T07:00:41.000Z,6.89
2022-09-30T07:03:15.728Z,6.97
2022-09-30T07:05:42.136Z,7.08
2022-09-30T07:08:10.582Z,7.17
2022-09-30T07:10:38.140Z,7.27
2022-09-30T07:13:04.601Z,7.33
2022-09-30T07:15:31.110Z,7.45
2022-09-30T07:17:57.611Z,7.60
2022-09-30T07:20:24.645Z,7.74
2022-09-30T07:22:51.255Z,7.84
2022-09-30T07:25:18.024Z,8.11
2022-09-30T07:27:44.920Z,8.30
2022-09-30T07:30:18.111Z,8.45
2022-09-30T07:32:50.092Z,8.59
2022-09-30T07:35:16.660Z,8.73
2022-09-30T07:37:43.107Z,8.92
2022-09-30T07:40:10.030Z,8.99
2022-09-30T07:42:45.363Z,9.12
2022-09-30T07:45:19.212Z,9.30
2022-09-30T07:47:49.656Z,9.40
2022-09-30T07:50:19.137Z,9.61
2022-09-30T07:52:45.689Z,9.69
2022-09-30T07:55:12.170Z,9.92
2022-09-30T07:57:38.573Z,9.90
2022-09-30T08:00:29.761Z,10.11
2022-09-30T08:02:53.343Z,10.27
2022-09-30T08:05:19.756Z,10.38
2022-09-30T08:07:46.216Z,10.49
2022-09-30T08:10:12.749Z,10.61
2022-09-30T08:12:39.173Z,10.68
2022-09-30T08:15:09.557Z,10.87
2022-09-30T08:17:36.011Z,11.03
2022-09-30T08:20:02.481Z,11.11
2022-09-30T08:22:28.896Z,11.26
2022-09-30T08:24:55.331Z,11.42
2022-09-30T08:27:21.831Z,11.59
2022-09-30T08:29:59.119Z,11.67
2022-09-30T08:32:30.587Z,11.88
2022-09-30T08:34:57.024Z,11.92
2022-09-30T08:37:24.114Z,12.06
2022-09-30T08:39:50.625Z,12.18
2022-09-30T08:42:42.470Z,12.29
2022-09-30T08:45:35.907Z,12.43
2022-09-30T08:48:08.919Z,12.62
2022-09-30T08:50:46.863Z,12.70
2022-09-30T08:53:24.197Z,12.85
2022-09-30T08:55:54.505Z,12.93
2022-09-30T08:58:28.515Z,13.06
2022-09-30T09:00:59.333Z,13.12
2022-09-30T09:03:29.779Z,13.27
2022-09-30T09:05:56.607Z,13.32
2022-09-30T09:08:26.076Z,13.50
2022-09-30T09:11:07.329Z,13.72
2022-09-30T09:14:00.716Z,13.86
2022-09-30T09:16:30.174Z,13.87
2022-09-30T09:19:05.674Z,14.09
2022-09-30T09:21:44.176Z,14.26
2022-09-30T09:24:21.109Z,14.29
2022-09-30T09:26:49.018Z,14.45
2022-09-30T09:29:48.168Z,14.49
2022-09-30T09:32:17.716Z,14.61
2022-09-30T09:34:50.572Z,14.84
2022-09-30T09:38:03.167Z,15.04
2022-09-30T09:41:23.822Z,15.06
2022-09-30T09:43:55.745Z,15.11
2022-09-30T09:46:29.516Z,15.30
2022-09-30T09:49:28.300Z,15.34
2022-09-30T09:52:11.619Z,15.52
2022-09-30T09:54:51.292Z,15.68
2022-09-30T09:57:24.768Z,15.78
2022-09-30T10:00:25.167Z,15.95
2022-09-30T10:03:01.996Z,15.93
2022-09-30T10:05:30.240Z,15.80
2022-09-30T10:08:22.947Z,15.98
2022-09-30T10:11:20.586Z,16.26
2022-09-30T10:13:47.337Z,16.13
2022-09-30T10:16:25.815Z,16.23
2022-09-30T10:18:52.464Z,16.25
2022-09-30T10:21:24.581Z,16.58
2022-09-30T10:23:51.146Z,16.33
2022-09-30T10:26:24.207Z,16.63
2022-09-30T10:28:56.452Z,16.50
2022-09-30T10:31:36.420Z,16.71
2022-09-30T10:34:14.743Z,16.83
2022-09-30T10:36:43.398Z,16.51
2022-09-30T10:39:26.755Z,16.46
2022-09-30T10:42:08.542Z,16.59
2022-09-30T10:44:46.935Z,16.76
2022-09-30T10:47:18.180Z,17.19
2022-09-30T10:49:59.771Z,17.39
2022-09-30T10:52:32.404Z,17.42
2022-09-30T10:55:09.083Z,17.67
2022-09-30T10:57:40.332Z,17.78
2022-09-30T11:00:14.778Z,17.97
2022-09-30T11:02:53.170Z,17.31
2022-09-30T11:05:33.711Z,17.04
2022-09-30T11:08:18.420Z,16.96
2022-09-30T11:11:07.212Z,16.91
2022-09-30T11:13:57.377Z,17.02
2022-09-30T11:16:36.088Z,17.28
2022-09-30T11:19:05.579Z,17.23
2022-09-30T11:21:54.033Z,17.23
2022-09-30T11:24:38.310Z,17.25
2022-09-30T11:27:04.705Z,17.29
2022-09-30T11:29:53.501Z,17.38
2022-09-30T11:32:36.365Z,17.15
2022-09-30T11:35:22.997Z,17.63
2022-09-30T11:38:02.150Z,18.14
2022-09-30T11:41:03.748Z,18.37
2022-09-30T11:43:41.982Z,18.82
2022-09-30T11:46:25.735Z,18.65
2022-09-30T11:49:11.255Z,18.87
2022-09-30T11:52:03.374Z,19.03
2022-09-30T11:54:38.679Z,18.15
2022-09-30T11:57:14.163Z,18.31
2022-09-30T11:59:54.414Z,18.30
2022-09-30T12:02:40.447Z,18.25
2022-09-30T12:05:28.612Z,18.47
2022-09-30T12:08:03.408Z,18.91
2022-09-30T12:10:36.058Z,19.00
2022-09-30T12:13:18.808Z,19.12
2022-09-30T12:15:47.212Z,18.55
2022-09-30T12:18:19.132Z,18.63
2022-09-30T12:20:55.515Z,18.24
2022-09-30T12:23:32.599Z,18.85
2022-09-30T12:26:03.761Z,19.45
2022-09-30T12:28:51.895Z,19.62
2022-09-30T12:31:21.115Z,20.07
2022-09-30T12:34:31.171Z,20.33
2022-09-30T12:37:20.839Z,20.69
2022-09-30T12:40:03.774Z,21.22
2022-09-30T12:42:59.414Z,21.32
2022-09-30T12:45:29.598Z,21.53
2022-09-30T12:47:58.640Z,21.62
2022-09-30T12:50:34.278Z,21.00
2022-09-30T12:53:16.143Z,21.42
2022-09-30T12:55:42.994Z,22.33
2022-09-30T12:58:28.511Z,22.47
2022-09-30T13:01:08.325Z,22.12
2022-09-30T13:03:59.225Z,22.83
2022-09-30T13:06:44.936Z,22.14
2022-09-30T13:09:11.383Z,21.08
2022-09-30T13:11:40.989Z,20.83
2022-09-30T13:14:43.478Z,20.97
2022-09-30T13:17:13.203Z,21.35
2022-09-30T13:19:45.698Z,21.29
2022-09-30T13:22:18.135Z,20.93
2022-09-30T13:25:12.137Z,20.91
2022-09-30T13:27:41.565Z,20.95
2022-09-30T13:30:17.122Z,20.77
2022-09-30T13:32:50.771Z,19.87
2022-09-30T13:35:37.504Z,20.17
2022-09-30T13:38:16.105Z,20.12
2022-09-30T13:41:05.506Z,19.75
2022-09-30T13:43:38.215Z,19.34
2022-09-30T13:46:17.969Z,19.46
2022-09-30T13:49:00.587Z,19.69
2022-09-30T13:51:32.819Z,19.56
2022-09-30T13:54:08.446Z,19.36
2022-09-30T13:56:39.969Z,19.50
2022-09-30T13:59:43.933Z,20.03
2022-09-30T14:02:33.735Z,19.80
2022-09-30T14:05:35.101Z,20.39
2022-09-30T14:08:24.609Z,21.46
2022-09-30T14:11:36.129Z,21.43
2022-09-30T14:14:24.820Z,21.03
2022-09-30T14:17:25.211Z,20.28
2022-09-30T14:19:58.311Z,19.89
2022-09-30T14:22:30.088Z,19.72
2022-09-30T14:24:57.743Z,19.90
2022-09-30T14:27:29.927Z,19.82
2022-09-30T14:30:05.718Z,19.43
2022-09-30T14:33:06.636Z,19.13
2022-09-30T14:35:35.704Z,19.19
2022-09-30T14:38:07.141Z,19.23
2022-09-30T14:40:36.803Z,18.99
2022-09-30T14:43:06.630Z,18.87
2022-09-30T14:45:37.668Z,19.31
2022-09-30T14:48:22.889Z,19.34
2022-09-30T14:51:05.644Z,19.42
2022-09-30T14:53:35.001Z,19.65
2022-09-30T14:56:04.941Z,19.91
2022-09-30T14:58:39.911Z,19.76
2022-09-30T15:01:20.998Z,19.92
2022-09-30T15:03:53.382Z,19.86
2022-09-30T15:06:23.309Z,20.11
2022-09-30T15:08:51.342Z,19.67
2022-09-30T15:11:28.104Z,19.27
2022-09-30T15:14:07.475Z,18.95
2022-09-30T15:16:34.558Z,18.91
2022-09-30T15:19:01.438Z,18.68
2022-09-30T15:21:31.321Z,18.69
2022-09-30T15:24:00.669Z,18.71
2022-09-30T15:26:27.758Z,18.81
2022-09-30T15:28:54.801Z,18.84
2022-09-30T15:31:28.461Z,18.83
2022-09-30T15:34:21.890Z,18.65
2022-09-30T15:37:00.342Z,18.33
2022-09-30T15:39:48.418Z,18.41
2022-09-30T15:42:30.342Z,18.33
2022-09-30T15:44:59.308Z,18.54
2022-09-30T15:47:27.530Z,18.41
2022-09-30T15:49:55.338Z,18.41
2022-09-30T15:52:29.340Z,18.40
2022-09-30T15:54:57.093Z,18.35
2022-09-30T15:57:47.291Z,18.41
2022-09-30T16:00:35.328Z,18.37
2022-09-30T16:03:17.104Z,18.32
2022-09-30T16:05:44.905Z,18.19
2022-09-30T16:08:23.047Z,18.23
2022-09-30T16:10:56.094Z,18.15
2022-09-30T16:13:25.626Z,18.16
2022-09-30T16:15:57.561Z,18.01
2022-09-30T16:18:31.312Z,18.06
2022-09-30T16:21:03.271Z,17.93
2022-09-30T16:23:38.281Z,17.92
2022-09-30T16:26:28.747Z,17.77
2022-09-30T16:28:56.300Z,17.51
2022-09-30T16:31:24.205Z,17.57
2022-09-30T16:33:50.822Z,17.46
2022-09-30T16:36:17.350Z,17.40
2022-09-30T16:38:43.837Z,17.43
2022-09-30T16:41:13.021Z,17.24
2022-09-30T16:43:40.144Z,17.26
2022-09-30T16:46:07.151Z,17.21
2022-09-30T16:48:35.016Z,17.18
2022-09-30T16:51:16.871Z,17.10
2022-09-30T16:53:43.968Z,16.99
2022-09-30T16:56:15.376Z,16.94
2022-09-30T16:58:42.843Z,16.89
2022-09-30T17:01:18.752Z,16.81
2022-09-30T17:03:46.419Z,16.81
2022-09-30T17:06:14.423Z,16.73
2022-09-30T17:08:41.379Z,16.59
2022-09-30T17:11:07.848Z,16.50
2022-09-30T17:13:35.584Z,16.58
2022-09-30T17:16:02.103Z,16.52
2022-09-30T17:18:28.571Z,16.45
2022-09-30T17:20:55.873Z,16.42
2022-09-30T17:23:24.181Z,16.39
2022-09-30T17:25:51.975Z,16.32
2022-09-30T17:28:18.509Z,16.28
2022-09-30T17:30:47.909Z,16.31
2022-09-30T17:33:15.266Z,16.25
2022-09-30T17:35:41.744Z,16.11
2022-09-30T17:38:12.706Z,16.18
2022-09-30T17:40:58.767Z,16.19
2022-09-30T17:43:25.229Z,16.10
2022-09-30T17:45:52.387Z,16.09
2022-09-30T17:48:18.959Z,16.06
2022-09-30T17:50:48.483Z,16.02
2022-09-30T17:53:19.396Z,15.93
2022-09-30T17:55:47.967Z,15.89
2022-09-30T17:58:19.183Z,15.87
2022-09-30T18:00:46.800Z,15.87
2022-09-30T18:03:13.508Z,15.80
2022-09-30T18:05:40.041Z,15.75
2022-09-30T18:08:06.606Z,15.74
2022-09-30T18:10:37.109Z,15.65
2022-09-30T18:13:03.662Z,15.65
2022-09-30T18:15:30.165Z,15.59
2022-09-30T18:17:56.961Z,15.46
2022-09-30T18:20:25.541Z,15.27
2022-09-30T18:22:52.336Z,15.21
2022-09-30T18:25:22.592Z,15.17
2022-09-30T18:27:59.190Z,15.09
2022-09-30T18:30:26.797Z,15.13
2022-09-30T18:32:54.424Z,15.16
2022-09-30T18:35:24.498Z,15.18
2022-09-30T18:37:53.073Z,15.19
2022-09-30T18:40:22.566Z,15.14
2022-09-30T18:42:56.249Z,15.08
2022-09-30T18:45:23.973Z,15.03
2022-09-30T18:47:55.341Z,14.92
2022-09-30T18:50:23.164Z,14.88
2022-09-30T18:52:51.247Z,14.83
2022-09-30T18:55:18.310Z,14.89
2022-09-30T18:57:48.264Z,14.86
2022-09-30T19:00:16.795Z,14.81
2022-09-30T19:02:44.692Z,14.80
2022-09-30T19:05:12.887Z,14.80
2022-09-30T19:07:39.400Z,14.74
2022-09-30T19:10:10.204Z,14.71
2022-09-30T19:12:37.982Z,14.66
2022-09-30T19:15:06.931Z,14.57
2022-09-30T19:17:33.699Z,14.45
2022-09-30T19:20:00.747Z,14.36
2022-09-30T19:22:28.323Z,14.31
2022-09-30T19:24:54.977Z,14.23
2022-09-30T19:27:26.238Z,14.19
2022-09-30T19:29:58.535Z,14.15
2022-09-30T19:32:26.494Z,14.03
2022-09-30T19:35:05.441Z,14.05
2022-09-30T19:37:33.072Z,14.04
2022-09-30T19:40:08.445Z,14.00
2022-09-30T19:42:42.639Z,13.96
2022-09-30T19:45:09.217Z,13.99
2022-09-30T19:47:36.537Z,13.94
2022-09-30T19:50:04.109Z,13.86
2022-09-30T19:52:30.548Z,13.85
2022-09-30T19:55:05.394Z,13.82
2022-09-30T19:57:37.686Z,13.76
2022-09-30T20:00:05.516Z,13.61
2022-09-30T20:02:32.388Z,13.51
2022-09-30T20:05:00.474Z,13.56
2022-09-30T20:07:28.176Z,13.52
2022-09-30T20:09:54.705Z,13.47
2022-09-30T20:12:21.203Z,13.51
2022-09-30T20:15:06.431Z,13.45
2022-09-30T20:17:32.938Z,13.42
2022-09-30T20:20:18.050Z,13.37
2022-09-30T20:22:44.531Z,13.41
2022-09-30T20:25:11.204Z,13.33
2022-09-30T20:27:40.312Z,13.26
2022-09-30T20:30:07.154Z,13.23
2022-09-30T20:32:33.614Z,13.26
2022-09-30T20:35:00.120Z,13.23
2022-09-30T20:37:26.650Z,13.19
2022-09-30T20:39:53.111Z,13.19
2022-09-30T20:42:19.558Z,13.23
2022-09-30T20:44:46.069Z,13.26
2022-09-30T20:47:12.596Z,13.24
2022-09-30T20:49:39.078Z,13.25
2022-09-30T20:52:06.023Z,13.26
2022-09-30T20:54:35.384Z,13.34
2022-09-30T20:57:07.232Z,13.42
2022-09-30T20:59:33.963Z,13.40
2022-09-30T21:02:00.492Z,13.38
2022-09-30T21:04:27.018Z,13.40
2022-09-30T21:06:53.510Z,13.49
2022-09-30T21:09:19.969Z,13.53
2022-09-30T21:11:46.436Z,13.61
2022-09-30T21:14:15.877Z,13.66
2022-09-30T21:16:42.420Z,13.77
2022-09-30T21:19:10.271Z,13.84
2022-09-30T21:21:36.702Z,13.85
2022-09-30T21:24:03.241Z,13.91
2022-09-30T21:26:30.009Z,13.94
2022-09-30T21:28:56.468Z,13.91
2022-09-30T21:31:27.535Z,13.96
2022-09-30T21:33:56.522Z,13.96
2022-09-30T21:36:24.170Z,14.06
2022-09-30T21:38:51.360Z,13.99
2022-09-30T21:41:19.563Z,14.03
2022-09-30T21:43:46.996Z,14.09
2022-09-30T21:46:15.392Z,14.05
2022-09-30T21:48:42.542Z,14.00
2022-09-30T21:51:09.994Z,14.11
2022-09-30T21:53:36.941Z,14.08
2022-09-30T21:56:03.928Z,14.11
2022-09-30T21:58:31.989Z,14.15
2022-09-30T22:01:04.362Z,14.07
2022-09-30T22:03:39.416Z,14.13
2022-09-30T22:06:07.989Z,14.22
2022-09-30T22:08:39.912Z,14.20
2022-09-30T22:11:12.845Z,14.22
2022-09-30T22:13:42.093Z,14.25
2022-09-30T22:16:08.978Z,14.29
2022-09-30T22:18:36.183Z,14.27
2022-09-30T22:21:13.813Z,14.28
2022-09-30T22:23:40.821Z,14.31
2022-09-30T22:26:12.775Z,14.26
2022-09-30T22:28:39.892Z,14.32
2022-09-30T22:31:13.846Z,14.36
2022-09-30T22:33:59.328Z,14.49
2022-09-30T22:36:44.223Z,14.41
2022-09-30T22:39:11.244Z,14.49
2022-09-30T22:41:38.289Z,14.48
2022-09-30T22:44:05.156Z,14.56
2022-09-30T22:46:36.047Z,14.51
2022-09-30T22:49:03.659Z,14.62
2022-09-30T22:51:32.648Z,14.52
2022-09-30T22:54:01.012Z,14.59
2022-09-30T22:56:27.885Z,14.49
2022-09-30T22:58:54.331Z,14.50
2022-09-30T23:01:20.850Z,14.44
2022-09-30T23:03:48.457Z,14.47
2022-09-30T23:06:14.923Z,14.63
2022-09-30T23:08:41.722Z,14.60
2022-09-30T23:11:10.891Z,14.58
2022-09-30T23:13:38.307Z,14.64
2022-09-30T23:16:06.516Z,14.56
2022-09-30T23:18:34.158Z,14.63
2022-09-30T23:21:05.963Z,14.52
2022-09-30T23:23:33.897Z,14.61
2022-09-30T23:26:04.708Z,14.68
2022-09-30T23:28:32.402Z,14.51
2022-09-30T23:31:05.088Z,14.57
2022-09-30T23:33:31.519Z,14.51
2022-09-30T23:36:01.196Z,14.59
2022-09-30T23:38:28.565Z,14.57
2022-09-30T23:41:00.986Z,14.55
2022-09-30T23:43:32.345Z,14.52
2022-09-30T23:45:58.951Z,14.62
2022-09-30T23:48:25.864Z,14.59
2022-09-30T23:50:53.078Z,14.56
2022-09-30T23:53:21.748Z,14.58
2022-09-30T23:55:56.399Z,14.65
2022-09-30T23:58:24.200Z,14.55
